sensor_id;sensor_type;location;lat;lon;timestamp;pressure;altitude;pressure_sealevel;temperature;humidity
35551;BME280;21655;46.056;13.616;2023-06-24T00:02:11;100412.47;;;18.14;100.00
35551;BME280;21655;46.056;13.616;2023-06-24T00:04:36;100417.50;;;18.06;100.00
35551;BME280;21655;46.056;13.616;2023-06-24T00:07:02;100416.81;;;18.04;100.00
35551;BME280;21655;46.056;13.616;2023-06-24T00:09:28;100414.09;;;17.97;100.00
35551;BME280;21655;46.056;13.616;2023-06-24T00:11:55;100405.09;;;17.89;100.00
35551;BME280;21655;46.056;13.616;2023-06-24T00:14:22;100401.59;;;17.93;100.00
35551;BME280;21655;46.056;13.616;2023-06-24T00:16:50;100398.81;;;17.87;100.00
35551;BME280;21655;46.056;13.616;2023-06-24T00:19:20;100396.44;;;17.90;100.00
35551;BME280;21655;46.056;13.616;2023-06-24T00:21:47;100398.41;;;17.90;100.00
35551;BME280;21655;46.056;13.616;2023-06-24T00:24:13;100383.03;;;17.92;100.00
35551;BME280;21655;46.056;13.616;2023-06-24T00:26:38;100382.19;;;17.92;100.00
35551;BME280;21655;46.056;13.616;2023-06-24T00:29:03;100386.34;;;17.83;100.00
35551;BME280;21655;46.056;13.616;2023-06-24T00:31:29;100375.13;;;17.83;100.00
35551;BME280;21655;46.056;13.616;2023-06-24T00:33:54;100380.72;;;17.83;100.00
35551;BME280;21655;46.056;13.616;2023-06-24T00:36:20;100375.75;;;17.85;100.00
35551;BME280;21655;46.056;13.616;2023-06-24T00:38:46;100385.03;;;17.85;100.00
35551;BME280;21655;46.056;13.616;2023-06-24T00:41:11;100379.19;;;17.87;100.00
35551;BME280;21655;46.056;13.616;2023-06-24T00:43:37;100369.97;;;17.80;100.00
35551;BME280;21655;46.056;13.616;2023-06-24T00:46:04;100360.97;;;17.71;100.00
35551;BME280;21655;46.056;13.616;2023-06-24T00:48:31;100375.09;;;17.52;100.00
35551;BME280;21655;46.056;13.616;2023-06-24T00:50:57;100374.44;;;17.56;100.00
35551;BME280;21655;46.056;13.616;2023-06-24T00:53:24;100375.72;;;17.54;100.00
35551;BME280;21655;46.056;13.616;2023-06-24T00:55:50;100372.28;;;17.52;100.00
35551;BME280;21655;46.056;13.616;2023-06-24T00:58:16;100379.69;;;17.46;100.00
35551;BME280;21655;46.056;13.616;2023-06-24T01:00:46;100376.19;;;17.51;100.00
35551;BME280;21655;46.056;13.616;2023-06-24T01:03:13;100382.00;;;17.56;100.00
35551;BME280;21655;46.056;13.616;2023-06-24T01:05:39;100385.19;;;17.59;100.00
35551;BME280;21655;46.056;13.616;2023-06-24T01:08:06;100387.16;;;17.59;100.00
35551;BME280;21655;46.056;13.616;2023-06-24T01:10:31;100389.59;;;17.42;100.00
35551;BME280;21655;46.056;13.616;2023-06-24T01:12:57;100385.13;;;17.35;100.00
35551;BME280;21655;46.056;13.616;2023-06-24T01:15:23;100384.44;;;17.33;100.00
35551;BME280;21655;46.056;13.616;2023-06-24T01:23:29;100386.47;;;17.19;100.00
35551;BME280;21655;46.056;13.616;2023-06-24T01:26:19;100401.13;;;17.21;100.00
35551;BME280;21655;46.056;13.616;2023-06-24T01:34:20;100420.06;;;17.26;100.00
35551;BME280;21655;46.056;13.616;2023-06-24T01:37:14;100417.06;;;17.21;100.00
35551;BME280;21655;46.056;13.616;2023-06-24T01:39:48;100424.44;;;17.15;100.00
35551;BME280;21655;46.056;13.616;2023-06-24T01:42:16;100426.34;;;17.21;100.00
35551;BME280;21655;46.056;13.616;2023-06-24T01:44:44;100435.41;;;17.17;100.00
35551;BME280;21655;46.056;13.616;2023-06-24T01:47:10;100438.19;;;17.17;100.00
35551;BME280;21655;46.056;13.616;2023-06-24T01:49:40;100438.91;;;17.06;100.00
35551;BME280;21655;46.056;13.616;2023-06-24T01:52:08;100450.53;;;17.03;100.00
35551;BME280;21655;46.056;13.616;2023-06-24T01:54:35;100444.28;;;17.07;100.00
35551;BME280;21655;46.056;13.616;2023-06-24T01:57:03;100447.09;;;17.01;100.00
35551;BME280;21655;46.056;13.616;2023-06-24T01:59:29;100443.63;;;17.05;100.00
35551;BME280;21655;46.056;13.616;2023-06-24T02:01:55;100439.34;;;16.97;100.00
35551;BME280;21655;46.056;13.616;2023-06-24T02:04:23;100446.25;;;17.01;100.00
35551;BME280;21655;46.056;13.616;2023-06-24T02:06:50;100459.00;;;16.90;100.00
35551;BME280;21655;46.056;13.616;2023-06-24T02:09:19;100452.72;;;16.88;100.00
35551;BME280;21655;46.056;13.616;2023-06-24T02:11:46;100455.75;;;16.93;100.00
35551;BME280;21655;46.056;13.616;2023-06-24T02:14:12;100466.72;;;16.95;100.00
35551;BME280;21655;46.056;13.616;2023-06-24T02:16:41;100471.28;;;16.89;100.00
35551;BME280;21655;46.056;13.616;2023-06-24T02:19:08;100474.03;;;16.96;100.00
35551;BME280;21655;46.056;13.616;2023-06-24T02:21:35;100479.00;;;16.94;100.00
35551;BME280;21655;46.056;13.616;2023-06-24T02:24:02;100483.13;;;16.98;100.00
35551;BME280;21655;46.056;13.616;2023-06-24T02:26:28;100482.88;;;16.99;100.00
35551;BME280;21655;46.056;13.616;2023-06-24T02:28:54;100489.34;;;17.00;100.00
35551;BME280;21655;46.056;13.616;2023-06-24T02:31:20;100488.03;;;16.96;100.00
35551;BME280;21655;46.056;13.616;2023-06-24T02:33:45;100478.16;;;16.93;100.00
35551;BME280;21655;46.056;13.616;2023-06-24T02:36:11;100477.91;;;16.95;100.00
35551;BME280;21655;46.056;13.616;2023-06-24T02:38:37;100482.03;;;16.92;100.00
35551;BME280;21655;46.056;13.616;2023-06-24T02:41:02;100486.56;;;16.93;100.00
35551;BME280;21655;46.056;13.616;2023-06-24T02:43:30;100489.56;;;16.98;100.00
35551;BME280;21655;46.056;13.616;2023-06-24T02:45:58;100475.34;;;17.00;100.00
35551;BME280;21655;46.056;13.616;2023-06-24T02:48:26;100486.94;;;17.03;100.00
35551;BME280;21655;46.056;13.616;2023-06-24T02:50:52;100483.94;;;17.04;100.00
35551;BME280;21655;46.056;13.616;2023-06-24T02:53:18;100483.75;;;17.00;100.00
35551;BME280;21655;46.056;13.616;2023-06-24T02:55:44;100494.72;;;17.01;100.00
35551;BME280;21655;46.056;13.616;2023-06-24T02:58:10;100493.00;;;17.06;100.00
35551;BME280;21655;46.056;13.616;2023-06-24T03:00:37;100491.72;;;17.02;100.00
35551;BME280;21655;46.056;13.616;2023-06-24T03:03:04;100500.75;;;17.11;100.00
35551;BME280;21655;46.056;13.616;2023-06-24T03:05:30;100496.66;;;17.07;100.00
35551;BME280;21655;46.056;13.616;2023-06-24T03:07:58;100502.69;;;17.10;100.00
35551;BME280;21655;46.056;13.616;2023-06-24T03:10:24;100499.66;;;17.12;100.00
35551;BME280;21655;46.056;13.616;2023-06-24T03:12:51;100505.69;;;17.22;100.00
35551;BME280;21655;46.056;13.616;2023-06-24T03:15:16;100503.97;;;17.14;100.00
35551;BME280;21655;46.056;13.616;2023-06-24T03:17:42;100496.41;;;17.21;100.00
35551;BME280;21655;46.056;13.616;2023-06-24T03:20:08;100497.06;;;17.17;100.00
35551;BME280;21655;46.056;13.616;2023-06-24T03:22:35;100500.72;;;17.17;100.00
35551;BME280;21655;46.056;13.616;2023-06-24T03:25:00;100502.03;;;17.15;100.00
35551;BME280;21655;46.056;13.616;2023-06-24T03:27:26;100493.59;;;17.21;100.00
35551;BME280;21655;46.056;13.616;2023-06-24T03:29:51;100496.59;;;17.20;100.00
35551;BME280;21655;46.056;13.616;2023-06-24T03:32:17;100494.88;;;17.25;100.00
35551;BME280;21655;46.056;13.616;2023-06-24T03:34:42;100505.44;;;17.30;100.00
35551;BME280;21655;46.056;13.616;2023-06-24T03:37:08;100513.88;;;17.23;100.00
35551;BME280;21655;46.056;13.616;2023-06-24T03:39:33;100507.41;;;17.23;100.00
35551;BME280;21655;46.056;13.616;2023-06-24T03:41:59;100509.13;;;17.24;100.00
35551;BME280;21655;46.056;13.616;2023-06-24T03:44:24;100501.56;;;17.24;100.00
35551;BME280;21655;46.056;13.616;2023-06-24T03:46:50;100506.31;;;17.24;100.00
35551;BME280;21655;46.056;13.616;2023-06-24T03:49:15;100509.53;;;17.21;100.00
35551;BME280;21655;46.056;13.616;2023-06-24T03:51:41;100520.09;;;17.25;100.00
35551;BME280;21655;46.056;13.616;2023-06-24T03:54:06;100517.94;;;17.27;100.00
35551;BME280;21655;46.056;13.616;2023-06-24T03:56:32;100523.97;;;17.31;100.00
35551;BME280;21655;46.056;13.616;2023-06-24T03:58:57;100521.81;;;17.26;100.00
35551;BME280;21655;46.056;13.616;2023-06-24T04:01:22;100528.97;;;17.22;100.00
35551;BME280;21655;46.056;13.616;2023-06-24T04:03:48;100522.91;;;17.19;100.00
35551;BME280;21655;46.056;13.616;2023-06-24T04:06:13;100521.81;;;17.26;100.00
35551;BME280;21655;46.056;13.616;2023-06-24T04:08:39;100528.31;;;17.20;100.00
35551;BME280;21655;46.056;13.616;2023-06-24T04:11:05;100520.75;;;17.34;100.00
35551;BME280;21655;46.056;13.616;2023-06-24T04:13:32;100530.69;;;17.36;100.00
35551;BME280;21655;46.056;13.616;2023-06-24T04:15:57;100540.38;;;17.40;100.00
35551;BME280;21655;46.056;13.616;2023-06-24T04:18:23;100538.19;;;17.49;100.00
35551;BME280;21655;46.056;13.616;2023-06-24T04:20:48;100532.38;;;17.50;100.00
35551;BME280;21655;46.056;13.616;2023-06-24T04:23:14;100539.28;;;17.48;100.00
35551;BME280;21655;46.056;13.616;2023-06-24T04:25:40;100535.38;;;17.49;100.00
35551;BME280;21655;46.056;13.616;2023-06-24T04:28:05;100543.34;;;17.58;100.00
35551;BME280;21655;46.056;13.616;2023-06-24T04:30:32;100549.78;;;17.65;100.00
35551;BME280;21655;46.056;13.616;2023-06-24T04:32:57;100553.22;;;17.74;100.00
35551;BME280;21655;46.056;13.616;2023-06-24T04:35:24;100557.88;;;17.93;100.00
35551;BME280;21655;46.056;13.616;2023-06-24T04:37:49;100553.53;;;18.41;100.00
35551;BME280;21655;46.056;13.616;2023-06-24T04:40:17;100560.81;;;18.79;100.00
35551;BME280;21655;46.056;13.616;2023-06-24T04:42:42;100553.81;;;18.88;100.00
35551;BME280;21655;46.056;13.616;2023-06-24T04:45:08;100562.66;;;18.92;100.00
35551;BME280;21655;46.056;13.616;2023-06-24T04:47:33;100565.59;;;18.72;100.00
35551;BME280;21655;46.056;13.616;2023-06-24T04:49:59;100568.38;;;19.03;100.00
35551;BME280;21655;46.056;13.616;2023-06-24T04:52:24;100572.34;;;19.62;100.00
35551;BME280;21655;46.056;13.616;2023-06-24T04:54:50;100567.63;;;20.28;100.00
35551;BME280;21655;46.056;13.616;2023-06-24T04:57:29;100568.66;;;20.75;100.00
35551;BME280;21655;46.056;13.616;2023-06-24T04:59:55;100564.22;;;21.08;100.00
35551;BME280;21655;46.056;13.616;2023-06-24T05:02:21;100570.25;;;21.23;100.00
35551;BME280;21655;46.056;13.616;2023-06-24T05:04:46;100565.22;;;21.48;100.00
35551;BME280;21655;46.056;13.616;2023-06-24T05:07:12;100572.97;;;21.87;100.00
35551;BME280;21655;46.056;13.616;2023-06-24T05:09:37;100574.38;;;22.12;100.00
35551;BME280;21655;46.056;13.616;2023-06-24T05:12:06;100576.50;;;22.33;100.00
35551;BME280;21655;46.056;13.616;2023-06-24T05:14:35;100584.28;;;22.66;100.00
35551;BME280;21655;46.056;13.616;2023-06-24T05:17:02;100578.81;;;22.76;100.00
35551;BME280;21655;46.056;13.616;2023-06-24T05:19:27;100591.81;;;23.04;100.00
35551;BME280;21655;46.056;13.616;2023-06-24T05:21:53;100595.75;;;23.03;100.00
35551;BME280;21655;46.056;13.616;2023-06-24T05:24:18;100587.66;;;23.23;100.00
35551;BME280;21655;46.056;13.616;2023-06-24T05:26:45;100598.53;;;23.48;100.00
35551;BME280;21655;46.056;13.616;2023-06-24T05:29:11;100597.50;;;23.54;100.00
35551;BME280;21655;46.056;13.616;2023-06-24T05:31:37;100601.97;;;23.50;100.00
35551;BME280;21655;46.056;13.616;2023-06-24T05:34:02;100597.66;;;23.47;100.00
35551;BME280;21655;46.056;13.616;2023-06-24T05:36:28;100604.00;;;23.71;100.00
35551;BME280;21655;46.056;13.616;2023-06-24T05:38:53;100614.78;;;24.07;100.00
35551;BME280;21655;46.056;13.616;2023-06-24T05:41:18;100611.34;;;24.26;100.00
35551;BME280;21655;46.056;13.616;2023-06-24T05:43:44;100610.72;;;24.41;100.00
35551;BME280;21655;46.056;13.616;2023-06-24T05:46:09;100614.63;;;24.56;100.00
35551;BME280;21655;46.056;13.616;2023-06-24T05:48:35;100622.13;;;24.46;100.00
35551;BME280;21655;46.056;13.616;2023-06-24T05:51:00;100620.25;;;24.35;100.00
35551;BME280;21655;46.056;13.616;2023-06-24T05:53:25;100619.41;;;24.13;100.00
35551;BME280;21655;46.056;13.616;2023-06-24T05:55:51;100609.00;;;24.18;100.00
35551;BME280;21655;46.056;13.616;2023-06-24T05:58:16;100619.47;;;24.18;100.00
35551;BME280;21655;46.056;13.616;2023-06-24T06:00:42;100625.44;;;24.00;100.00
35551;BME280;21655;46.056;13.616;2023-06-24T06:03:07;100623.13;;;23.97;100.00
35551;BME280;21655;46.056;13.616;2023-06-24T06:05:33;100633.91;;;24.38;100.00
35551;BME280;21655;46.056;13.616;2023-06-24T06:07:58;100624.03;;;24.40;100.00
35551;BME280;21655;46.056;13.616;2023-06-24T06:10:23;100632.63;;;24.67;100.00
35551;BME280;21655;46.056;13.616;2023-06-24T06:12:49;100627.66;;;24.79;100.00
35551;BME280;21655;46.056;13.616;2023-06-24T06:15:14;100632.22;;;25.06;100.00
35551;BME280;21655;46.056;13.616;2023-06-24T06:17:40;100628.72;;;25.20;100.00
35551;BME280;21655;46.056;13.616;2023-06-24T06:20:06;100635.91;;;24.80;100.00
35551;BME280;21655;46.056;13.616;2023-06-24T06:22:32;100626.53;;;24.37;100.00
35551;BME280;21655;46.056;13.616;2023-06-24T06:25:02;100629.41;;;23.99;100.00
35551;BME280;21655;46.056;13.616;2023-06-24T06:27:28;100639.28;;;23.80;100.00
35551;BME280;21655;46.056;13.616;2023-06-24T06:29:53;100637.31;;;23.97;100.00
35551;BME280;21655;46.056;13.616;2023-06-24T06:32:19;100654.66;;;23.51;100.00
35551;BME280;21655;46.056;13.616;2023-06-24T06:34:44;100639.28;;;23.47;100.00
35551;BME280;21655;46.056;13.616;2023-06-24T06:37:09;100640.31;;;24.28;100.00
35551;BME280;21655;46.056;13.616;2023-06-24T06:39:35;100624.66;;;25.16;100.00
35551;BME280;21655;46.056;13.616;2023-06-24T06:42:00;100632.72;;;26.29;100.00
35551;BME280;21655;46.056;13.616;2023-06-24T06:44:25;100629.59;;;26.92;100.00
35551;BME280;21655;46.056;13.616;2023-06-24T06:46:51;100635.44;;;27.51;100.00
35551;BME280;21655;46.056;13.616;2023-06-24T06:49:16;100622.34;;;27.85;100.00
35551;BME280;21655;46.056;13.616;2023-06-24T06:51:42;100619.66;;;28.29;100.00
35551;BME280;21655;46.056;13.616;2023-06-24T06:54:07;100623.19;;;28.89;100.00
35551;BME280;21655;46.056;13.616;2023-06-24T06:56:32;100627.47;;;29.35;100.00
35551;BME280;21655;46.056;13.616;2023-06-24T06:58:58;100627.94;;;29.85;100.00
35551;BME280;21655;46.056;13.616;2023-06-24T07:01:23;100618.88;;;30.35;100.00
35551;BME280;21655;46.056;13.616;2023-06-24T07:03:49;100622.66;;;30.54;100.00
35551;BME280;21655;46.056;13.616;2023-06-24T07:06:17;100623.19;;;31.22;100.00
35551;BME280;21655;46.056;13.616;2023-06-24T07:08:43;100623.09;;;31.63;99.61
35551;BME280;21655;46.056;13.616;2023-06-24T07:11:08;100633.22;;;31.93;88.19
35551;BME280;21655;46.056;13.616;2023-06-24T07:13:33;100630.69;;;31.54;81.08
35551;BME280;21655;46.056;13.616;2023-06-24T07:15:59;100624.56;;;31.61;78.78
35551;BME280;21655;46.056;13.616;2023-06-24T07:18:24;100617.94;;;31.65;77.57
35551;BME280;21655;46.056;13.616;2023-06-24T07:20:50;100619.41;;;32.27;75.95
35551;BME280;21655;46.056;13.616;2023-06-24T07:23:15;100616.06;;;32.06;72.69
35551;BME280;21655;46.056;13.616;2023-06-24T07:25:41;100609.56;;;32.01;61.80
35551;BME280;21655;46.056;13.616;2023-06-24T07:28:06;100610.31;;;32.52;59.27
35551;BME280;21655;46.056;13.616;2023-06-24T07:30:31;100613.28;;;32.60;59.75
35551;BME280;21655;46.056;13.616;2023-06-24T07:32:57;100604.91;;;32.77;55.60
35551;BME280;21655;46.056;13.616;2023-06-24T07:35:22;100610.50;;;32.42;53.05
35551;BME280;21655;46.056;13.616;2023-06-24T07:37:48;100603.88;;;32.28;51.96
35551;BME280;21655;46.056;13.616;2023-06-24T07:40:13;100602.28;;;32.22;49.10
35551;BME280;21655;46.056;13.616;2023-06-24T07:42:40;100596.59;;;32.76;52.82
35551;BME280;21655;46.056;13.616;2023-06-24T07:45:06;100594.78;;;32.93;53.45
35551;BME280;21655;46.056;13.616;2023-06-24T07:47:32;100594.03;;;32.47;47.94
35551;BME280;21655;46.056;13.616;2023-06-24T07:49:57;100597.31;;;32.41;49.75
35551;BME280;21655;46.056;13.616;2023-06-24T07:52:23;100600.41;;;32.44;51.45
35551;BME280;21655;46.056;13.616;2023-06-24T07:54:48;100603.41;;;32.07;44.74
35551;BME280;21655;46.056;13.616;2023-06-24T07:57:14;100612.03;;;32.80;50.98
35551;BME280;21655;46.056;13.616;2023-06-24T07:59:39;100605.19;;;32.62;48.55
35551;BME280;21655;46.056;13.616;2023-06-24T08:02:05;100607.41;;;32.65;47.37
35551;BME280;21655;46.056;13.616;2023-06-24T08:04:30;100605.34;;;32.71;46.94
35551;BME280;21655;46.056;13.616;2023-06-24T08:06:55;100604.00;;;33.31;47.36
35551;BME280;21655;46.056;13.616;2023-06-24T08:09:21;100590.50;;;33.53;43.09
35551;BME280;21655;46.056;13.616;2023-06-24T08:11:46;100595.00;;;33.89;45.11
35551;BME280;21655;46.056;13.616;2023-06-24T08:14:12;100590.94;;;33.90;44.05
35551;BME280;21655;46.056;13.616;2023-06-24T08:16:37;100594.69;;;33.91;44.73
35551;BME280;21655;46.056;13.616;2023-06-24T08:19:02;100594.44;;;33.79;42.30
35551;BME280;21655;46.056;13.616;2023-06-24T08:21:28;100588.94;;;33.91;41.68
35551;BME280;21655;46.056;13.616;2023-06-24T08:23:54;100590.56;;;33.83;42.70
35551;BME280;21655;46.056;13.616;2023-06-24T08:26:20;100585.13;;;34.04;41.51
35551;BME280;21655;46.056;13.616;2023-06-24T08:28:47;100584.78;;;34.05;42.00
35551;BME280;21655;46.056;13.616;2023-06-24T08:31:13;100579.22;;;34.70;40.20
35551;BME280;21655;46.056;13.616;2023-06-24T08:33:38;100582.84;;;34.92;40.61
35551;BME280;21655;46.056;13.616;2023-06-24T08:36:04;100589.47;;;34.93;41.06
35551;BME280;21655;46.056;13.616;2023-06-24T08:38:29;100586.19;;;34.38;39.01
35551;BME280;21655;46.056;13.616;2023-06-24T08:40:55;100590.47;;;34.97;41.81
35551;BME280;21655;46.056;13.616;2023-06-24T08:43:21;100579.50;;;34.60;39.90
35551;BME280;21655;46.056;13.616;2023-06-24T08:45:47;100571.28;;;34.45;37.85
35551;BME280;21655;46.056;13.616;2023-06-24T08:48:13;100572.47;;;34.83;39.90
35551;BME280;21655;46.056;13.616;2023-06-24T08:50:44;100570.47;;;34.92;38.40
35551;BME280;21655;46.056;13.616;2023-06-24T08:53:11;100577.78;;;34.59;36.42
35551;BME280;21655;46.056;13.616;2023-06-24T08:55:43;100570.59;;;34.70;38.24
35551;BME280;21655;46.056;13.616;2023-06-24T08:58:10;100576.91;;;34.89;38.91
35551;BME280;21655;46.056;13.616;2023-06-24T09:00:36;100574.63;;;35.16;39.02
35551;BME280;21655;46.056;13.616;2023-06-24T09:03:01;100572.94;;;35.49;38.63
35551;BME280;21655;46.056;13.616;2023-06-24T09:05:27;100567.34;;;35.44;37.14
35551;BME280;21655;46.056;13.616;2023-06-24T09:07:53;100566.66;;;35.47;38.62
35551;BME280;21655;46.056;13.616;2023-06-24T09:10:35;100564.78;;;35.34;36.24
35551;BME280;21655;46.056;13.616;2023-06-24T09:13:02;100566.81;;;35.34;37.27
35551;BME280;21655;46.056;13.616;2023-06-24T09:15:37;100562.75;;;35.26;37.47
35551;BME280;21655;46.056;13.616;2023-06-24T09:18:04;100568.38;;;35.73;36.77
35551;BME280;21655;46.056;13.616;2023-06-24T09:20:31;100562.16;;;35.07;36.63
35551;BME280;21655;46.056;13.616;2023-06-24T09:23:01;100565.13;;;35.92;36.68
35551;BME280;21655;46.056;13.616;2023-06-24T09:25:27;100553.72;;;35.87;37.96
35551;BME280;21655;46.056;13.616;2023-06-24T09:27:53;100552.53;;;36.51;35.06
35551;BME280;21655;46.056;13.616;2023-06-24T09:30:24;100547.75;;;36.55;34.33
35551;BME280;21655;46.056;13.616;2023-06-24T09:32:50;100547.22;;;36.61;34.01
35551;BME280;21655;46.056;13.616;2023-06-24T09:35:24;100546.38;;;37.19;34.15
35551;BME280;21655;46.056;13.616;2023-06-24T09:40:16;100541.94;;;36.92;35.24
35551;BME280;21655;46.056;13.616;2023-06-24T09:42:54;100554.59;;;36.79;33.85
35551;BME280;21655;46.056;13.616;2023-06-24T09:45:28;100557.81;;;36.49;34.62
35551;BME280;21655;46.056;13.616;2023-06-24T09:47:54;100551.91;;;37.32;31.58
35551;BME280;21655;46.056;13.616;2023-06-24T09:50:20;100555.25;;;36.47;35.48
35551;BME280;21655;46.056;13.616;2023-06-24T09:52:48;100556.44;;;36.55;34.21
35551;BME280;21655;46.056;13.616;2023-06-24T09:55:15;100552.19;;;36.81;35.03
35551;BME280;21655;46.056;13.616;2023-06-24T09:57:51;100552.47;;;36.68;32.44
35551;BME280;21655;46.056;13.616;2023-06-24T10:00:19;100542.84;;;36.84;30.93
35551;BME280;21655;46.056;13.616;2023-06-24T10:02:45;100549.66;;;35.46;34.73
35551;BME280;21655;46.056;13.616;2023-06-24T10:05:13;100550.69;;;35.50;35.38
35551;BME280;21655;46.056;13.616;2023-06-24T10:07:39;100546.09;;;35.65;35.22
35551;BME280;21655;46.056;13.616;2023-06-24T10:10:06;100543.75;;;35.76;34.36
35551;BME280;21655;46.056;13.616;2023-06-24T10:12:31;100536.22;;;36.09;34.93
35551;BME280;21655;46.056;13.616;2023-06-24T10:14:58;100527.56;;;36.09;32.99
35551;BME280;21655;46.056;13.616;2023-06-24T10:17:24;100533.94;;;36.23;32.76
35551;BME280;21655;46.056;13.616;2023-06-24T10:19:52;100528.56;;;35.96;34.08
35551;BME280;21655;46.056;13.616;2023-06-24T10:22:21;100525.72;;;35.79;32.98
35551;BME280;21655;46.056;13.616;2023-06-24T10:24:47;100527.06;;;35.56;34.86
35551;BME280;21655;46.056;13.616;2023-06-24T10:27:17;100522.47;;;34.96;35.76
35551;BME280;21655;46.056;13.616;2023-06-24T10:29:47;100525.00;;;34.89;34.88
35551;BME280;21655;46.056;13.616;2023-06-24T10:32:13;100523.09;;;34.76;33.60
35551;BME280;21655;46.056;13.616;2023-06-24T10:34:46;100523.72;;;34.56;35.42
35551;BME280;21655;46.056;13.616;2023-06-24T10:37:12;100521.94;;;34.94;36.08
35551;BME280;21655;46.056;13.616;2023-06-24T10:47:42;100515.81;;;33.70;37.76
35551;BME280;21655;46.056;13.616;2023-06-24T10:50:10;100512.31;;;33.38;39.27
35551;BME280;21655;46.056;13.616;2023-06-24T10:52:47;100503.66;;;32.80;38.65
35551;BME280;21655;46.056;13.616;2023-06-24T10:55:16;100510.50;;;32.71;37.08
35551;BME280;21655;46.056;13.616;2023-06-24T10:57:42;100493.19;;;32.22;36.46
35551;BME280;21655;46.056;13.616;2023-06-24T11:00:08;100500.19;;;32.43;37.19
35551;BME280;21655;46.056;13.616;2023-06-24T11:02:34;100488.91;;;32.73;36.17
35551;BME280;21655;46.056;13.616;2023-06-24T11:05:03;100497.50;;;32.60;35.73
35551;BME280;21655;46.056;13.616;2023-06-24T11:07:37;100492.31;;;32.75;37.89
35551;BME280;21655;46.056;13.616;2023-06-24T11:10:12;100491.88;;;32.82;37.84
35551;BME280;21655;46.056;13.616;2023-06-24T11:12:39;100498.66;;;32.86;37.52
35551;BME280;21655;46.056;13.616;2023-06-24T11:15:06;100507.31;;;32.72;37.71
35551;BME280;21655;46.056;13.616;2023-06-24T11:17:33;100487.72;;;32.74;38.83
35551;BME280;21655;46.056;13.616;2023-06-24T11:20:00;100486.28;;;32.99;37.77
35551;BME280;21655;46.056;13.616;2023-06-24T11:22:26;100478.69;;;33.03;38.47
35551;BME280;21655;46.056;13.616;2023-06-24T11:24:53;100485.38;;;32.49;36.88
35551;BME280;21655;46.056;13.616;2023-06-24T11:27:25;100472.38;;;32.65;35.41
35551;BME280;21655;46.056;13.616;2023-06-24T11:29:55;100480.78;;;32.62;36.51
35551;BME280;21655;46.056;13.616;2023-06-24T11:32:21;100468.44;;;32.88;38.53
35551;BME280;21655;46.056;13.616;2023-06-24T11:34:47;100468.59;;;32.56;40.11
35551;BME280;21655;46.056;13.616;2023-06-24T11:37:15;100467.84;;;31.83;39.32
35551;BME280;21655;46.056;13.616;2023-06-24T11:39:41;100463.50;;;31.54;39.72
35551;BME280;21655;46.056;13.616;2023-06-24T11:42:08;100459.78;;;31.99;39.78
35551;BME280;21655;46.056;13.616;2023-06-24T11:44:34;100461.16;;;32.42;40.59
35551;BME280;21655;46.056;13.616;2023-06-24T11:47:05;100456.66;;;32.49;37.97
35551;BME280;21655;46.056;13.616;2023-06-24T11:49:30;100454.56;;;32.41;38.38
35551;BME280;21655;46.056;13.616;2023-06-24T11:51:56;100458.63;;;32.40;38.29
35551;BME280;21655;46.056;13.616;2023-06-24T11:54:21;100456.75;;;32.58;38.83
35551;BME280;21655;46.056;13.616;2023-06-24T11:56:51;100451.00;;;32.58;38.14
35551;BME280;21655;46.056;13.616;2023-06-24T11:59:22;100460.19;;;32.46;37.05
35551;BME280;21655;46.056;13.616;2023-06-24T12:01:58;100441.84;;;32.69;37.72
35551;BME280;21655;46.056;13.616;2023-06-24T12:04:31;100443.91;;;32.91;37.98
35551;BME280;21655;46.056;13.616;2023-06-24T12:06:58;100446.88;;;32.50;39.49
35551;BME280;21655;46.056;13.616;2023-06-24T12:09:24;100460.25;;;32.82;41.20
35551;BME280;21655;46.056;13.616;2023-06-24T12:11:49;100457.75;;;31.99;40.20
35551;BME280;21655;46.056;13.616;2023-06-24T12:14:15;100465.59;;;31.94;41.53
35551;BME280;21655;46.056;13.616;2023-06-24T12:16:40;100460.78;;;31.31;40.11
35551;BME280;21655;46.056;13.616;2023-06-24T12:19:07;100463.03;;;31.65;38.69
35551;BME280;21655;46.056;13.616;2023-06-24T12:21:33;100461.91;;;32.20;38.10
35551;BME280;21655;46.056;13.616;2023-06-24T12:23:59;100468.88;;;32.82;38.50
35551;BME280;21655;46.056;13.616;2023-06-24T12:26:24;100468.13;;;33.12;37.47
35551;BME280;21655;46.056;13.616;2023-06-24T12:28:50;100468.00;;;33.17;38.50
35551;BME280;21655;46.056;13.616;2023-06-24T12:31:15;100465.06;;;32.73;36.54
35551;BME280;21655;46.056;13.616;2023-06-24T12:33:41;100470.16;;;32.76;38.13
35551;BME280;21655;46.056;13.616;2023-06-24T12:36:06;100482.38;;;32.68;37.38
35551;BME280;21655;46.056;13.616;2023-06-24T12:38:32;100482.13;;;32.42;37.14
35551;BME280;21655;46.056;13.616;2023-06-24T12:40:57;100484.69;;;32.30;37.29
35551;BME280;21655;46.056;13.616;2023-06-24T12:43:23;100477.31;;;32.38;37.91
35551;BME280;21655;46.056;13.616;2023-06-24T12:45:49;100491.72;;;32.24;38.39
35551;BME280;21655;46.056;13.616;2023-06-24T12:48:16;100491.13;;;31.82;37.80
35551;BME280;21655;46.056;13.616;2023-06-24T12:50:41;100489.97;;;32.10;37.63
35551;BME280;21655;46.056;13.616;2023-06-24T12:53:08;100474.22;;;31.94;38.25
35551;BME280;21655;46.056;13.616;2023-06-24T12:55:35;100490.47;;;31.71;37.74